EKRN

Bornholm Airport

Airport
ICAO code
EKRN
IATA Code
RNN
Summary
ICAO Region
EUR
ICAO Territory
Location

Rønne, Bornholm, Hovedstaden

Serving
Bornholm
Elevation
52 ft
Coordinates
55° 3' 47" N , 14° 45' 37" E
Metar
Observation
EKRN 291720Z AUTO 08006KT 9999 BKN025/// OVC055/// 05/02 Q1024
Station
Roenne
Date/Time
2022-11-29 17:20:00
Wind direction
80°
Wind speed
06 kts
Lowest cloud amount
broken clouds
Temperature
5°C
Dew point
2°C
Humidity
80%
QNH
1024 hPa
Weather condition
n/a

Description

Bornholm Airport is a Danish airport located 5 km southeast of Rønne, on the island of Bornholm.

Runways

Designator Length Width Surface Rops
11/29 2002 45 ASP No/No

Airport map

Aerial View

SKYbrary Partners:

Safety knowledge contributed by: